Terminal Aerodrome Forecast
Issued by NWS Sioux Falls, SD

Home | Current Version | Previous Version | Text Only | Print | Product List | Glossary On
Versions: 1 2 3 4 5 6 7 8 9 10 11 12 13 14 15 16 17 18
000
FTUS43 KFSD 212300
TAFFSD
TAF
KFSD 212340Z 2200/2224 34007KT P6SM SCT130
     FM220500 35004KT P6SM SCT200
     FM221000 VRB03KT 5SM BR SCT200
     FM221400 05006KT P6SM SCT200
     FM221800 08007KT P6SM SCT035=

USA.gov is the U.S. government's official web portal to all federal, state and local government web resources and services.